createdAt,value
2023-05-10T00:00:28.606Z,100149.22
2023-05-10T00:02:58.555Z,100149.25
2023-05-10T00:05:28.494Z,100139.78
2023-05-10T00:07:58.348Z,100066.59
2023-05-10T00:10:28.203Z,100108.13
2023-05-10T00:12:58.059Z,100066.47
2023-05-10T00:15:31.661Z,100071.53
2023-05-10T00:18:01.975Z,100131.84
2023-05-10T00:20:31.878Z,100125.00
2023-05-10T00:23:01.835Z,100124.19
2023-05-10T00:25:31.684Z,100101.16
2023-05-10T00:28:02.561Z,100120.84
2023-05-10T00:30:35.028Z,100111.47
2023-05-10T00:33:05.419Z,100116.66
2023-05-10T00:35:35.346Z,100116.63
2023-05-10T00:38:05.142Z,100116.63
2023-05-10T00:40:34.975Z,100105.41
2023-05-10T00:43:08.134Z,100065.50
2023-05-10T00:45:43.745Z,100063.91
2023-05-10T00:48:13.673Z,100114.16
2023-05-10T00:50:43.930Z,100118.69
2023-05-10T00:53:14.049Z,100037.06
2023-05-10T00:55:43.963Z,100101.59
2023-05-10T00:58:14.128Z,100110.88
2023-05-10T01:00:47.493Z,100112.53
2023-05-10T01:03:18.239Z,100070.91
2023-05-10T01:05:48.154Z,100095.56
2023-05-10T01:08:18.305Z,100110.88
2023-05-10T01:10:50.314Z,100108.25
2023-05-10T01:13:27.236Z,100032.66
2023-05-10T01:16:01.117Z,100094.97
2023-05-10T01:18:32.565Z,100105.38
2023-05-10T01:21:15.498Z,100096.84
2023-05-10T01:24:33.526Z,100107.44
2023-05-10T01:27:21.376Z,100099.91
2023-05-10T01:30:19.125Z,100032.03
2023-05-10T01:32:59.071Z,100100.44
2023-05-10T01:35:41.414Z,100097.00
2023-05-10T01:38:21.251Z,100100.41
2023-05-10T01:41:01.027Z,100094.59
2023-05-10T01:43:36.776Z,100031.78
2023-05-10T01:46:12.201Z,100104.22
2023-05-10T01:48:51.775Z,100106.06
2023-05-10T01:51:26.840Z,100044.94
2023-05-10T01:54:04.326Z,100105.25
2023-05-10T01:56:37.120Z,100035.50
2023-05-10T01:59:12.694Z,100103.69
2023-05-10T02:01:43.875Z,100102.91
2023-05-10T02:04:20.923Z,100104.69
2023-05-10T02:06:51.780Z,100096.19
2023-05-10T02:09:24.595Z,100080.84
2023-05-10T02:11:54.410Z,99895.34
2023-05-10T02:14:26.050Z,100090.31
2023-05-10T02:16:59.673Z,100077.72
2023-05-10T02:19:35.751Z,100094.78
2023-05-10T02:22:07.261Z,100098.22
2023-05-10T02:24:38.538Z,100085.44
2023-05-10T02:27:08.708Z,100104.31
2023-05-10T02:29:40.595Z,100101.78
2023-05-10T02:32:10.994Z,100057.44
2023-05-10T02:34:45.941Z,100100.06
2023-05-10T02:37:19.574Z,100098.47
2023-05-10T02:39:50.629Z,100069.50
2023-05-10T02:42:22.661Z,100081.38
2023-05-10T02:44:56.899Z,100029.41
2023-05-10T02:47:26.971Z,100088.38
2023-05-10T02:50:00.653Z,99892.41
2023-05-10T02:52:34.854Z,100048.25
2023-05-10T02:55:08.917Z,100033.03
2023-05-10T02:57:45.251Z,100015.97
2023-05-10T03:00:16.172Z,99936.75
2023-05-10T03:02:46.287Z,100046.53
2023-05-10T03:05:19.044Z,99977.63
2023-05-10T03:07:50.156Z,100078.94
2023-05-10T03:10:21.667Z,100076.44
2023-05-10T03:13:04.039Z,100067.97
2023-05-10T03:15:44.470Z,100081.78
2023-05-10T03:18:19.176Z,100082.66
2023-05-10T03:20:53.680Z,100080.97
2023-05-10T03:23:29.407Z,100083.41
2023-05-10T03:25:59.542Z,100070.59
2023-05-10T03:28:30.856Z,100022.00
2023-05-10T03:31:02.783Z,100014.34
2023-05-10T03:33:33.856Z,100078.31
2023-05-10T03:36:06.787Z,100072.41
2023-05-10T03:38:36.600Z,100093.78
2023-05-10T03:41:06.471Z,100093.78
2023-05-10T03:43:36.532Z,99804.13
2023-05-10T03:46:06.485Z,100021.44
2023-05-10T03:48:36.963Z,100074.22
2023-05-10T03:51:09.551Z,100074.97
2023-05-10T03:53:39.482Z,99967.72
2023-05-10T03:56:09.680Z,100088.84
2023-05-10T03:58:39.748Z,100014.78
2023-05-10T04:01:09.628Z,100120.44
2023-05-10T04:03:39.521Z,100110.97
2023-05-10T04:06:12.988Z,100115.03
2023-05-10T04:08:42.928Z,100099.69
2023-05-10T04:11:14.894Z,100021.34
2023-05-10T04:13:44.768Z,100051.28
2023-05-10T04:16:14.689Z,100066.72
2023-05-10T04:18:44.548Z,100108.41
2023-05-10T04:21:19.910Z,100130.59
2023-05-10T04:23:49.878Z,100066.59
2023-05-10T04:26:19.730Z,100106.59
2023-05-10T04:28:49.644Z,100123.69
2023-05-10T04:31:19.546Z,100084.41
2023-05-10T04:33:49.504Z,100051.22
2023-05-10T04:36:22.109Z,100120.25
2023-05-10T04:38:51.961Z,100056.38
2023-05-10T04:41:21.824Z,100105.75
2023-05-10T04:43:52.333Z,100109.25
2023-05-10T04:46:22.284Z,100123.75
2023-05-10T04:48:52.342Z,100125.47
2023-05-10T04:51:24.811Z,100124.63
2023-05-10T04:54:05.159Z,100105.13
2023-05-10T04:56:36.254Z,100048.03
2023-05-10T04:59:06.159Z,100131.56
2023-05-10T05:01:36.385Z,100136.66
2023-05-10T05:04:06.591Z,100140.97
2023-05-10T05:06:39.172Z,100141.81
2023-05-10T05:09:09.061Z,100167.50
2023-05-10T05:11:39.414Z,100121.31
2023-05-10T05:14:09.226Z,100135.78
2023-05-10T05:16:39.406Z,100054.75
2023-05-10T05:19:09.322Z,100156.97
2023-05-10T05:21:41.785Z,100110.13
2023-05-10T05:24:13.551Z,100143.41
2023-05-10T05:26:43.368Z,100136.50
2023-05-10T05:29:13.220Z,100101.59
2023-05-10T05:31:43.236Z,100174.91
2023-05-10T05:34:13.147Z,100141.66
2023-05-10T05:36:45.619Z,100140.72
2023-05-10T05:39:15.549Z,100169.75
2023-05-10T05:41:45.566Z,100172.25
2023-05-10T05:44:15.408Z,100066.56
2023-05-10T05:46:45.292Z,100159.56
2023-05-10T05:49:15.136Z,100126.34
2023-05-10T05:51:47.681Z,100036.78
2023-05-10T05:54:17.522Z,100172.44
2023-05-10T05:56:47.545Z,100175.94
2023-05-10T05:59:17.372Z,100182.69
2023-05-10T06:01:47.242Z,100201.19
2023-05-10T06:04:17.300Z,100199.63
2023-05-10T06:06:49.836Z,100228.03
2023-05-10T06:09:19.748Z,100236.03
2023-05-10T06:11:49.643Z,100225.78
2023-05-10T06:14:19.531Z,100208.63
2023-05-10T06:16:49.495Z,100232.59
2023-05-10T06:19:19.392Z,100212.06
2023-05-10T06:21:53.752Z,100177.91
2023-05-10T06:24:23.842Z,100216.47
2023-05-10T06:26:53.707Z,100217.31
2023-05-10T06:29:23.533Z,100259.22
2023-05-10T06:31:53.371Z,100136.28
2023-05-10T06:34:23.318Z,100122.69
2023-05-10T06:36:55.880Z,100224.31
2023-05-10T06:39:25.727Z,100154.31
2023-05-10T06:41:55.608Z,100165.47
2023-05-10T06:44:25.471Z,100130.41
2023-05-10T06:46:56.979Z,100181.63
2023-05-10T06:49:26.884Z,100179.06
2023-05-10T06:51:59.475Z,100211.50
2023-05-10T06:54:29.378Z,100251.63
2023-05-10T06:56:59.837Z,100287.53
2023-05-10T06:59:30.624Z,100248.28
2023-05-10T07:02:00.586Z,100225.28
2023-05-10T07:04:30.583Z,100300.47
2023-05-10T07:07:03.019Z,100265.41
2023-05-10T07:09:33.421Z,100247.44
2023-05-10T07:12:07.218Z,100303.78
2023-05-10T07:14:37.979Z,100226.06
2023-05-10T07:17:08.057Z,100242.25
2023-05-10T07:19:37.975Z,100234.66
2023-05-10T07:22:10.524Z,100236.38
2023-05-10T07:24:40.363Z,100332.06
2023-05-10T07:27:10.228Z,100114.22
2023-05-10T07:29:40.138Z,100322.59
2023-05-10T07:32:10.209Z,100303.81
2023-05-10T07:34:40.096Z,100270.59
2023-05-10T07:37:12.672Z,100331.19
2023-05-10T07:39:42.607Z,100243.22
2023-05-10T07:42:12.432Z,100341.47
2023-05-10T07:44:42.970Z,100291.97
2023-05-10T07:47:12.879Z,100343.19
2023-05-10T07:49:42.674Z,100338.03
2023-05-10T07:52:15.162Z,100338.03
2023-05-10T07:54:45.747Z,100356.84
2023-05-10T07:57:15.801Z,100309.81
2023-05-10T07:59:45.682Z,100342.22
2023-05-10T08:02:15.509Z,100367.88
2023-05-10T08:04:45.624Z,100366.19
2023-05-10T08:07:18.115Z,100298.72
2023-05-10T08:09:47.977Z,100372.25
2023-05-10T08:12:17.873Z,100276.59
2023-05-10T08:14:47.733Z,100257.72
2023-05-10T08:17:19.679Z,100352.47
2023-05-10T08:19:49.964Z,100336.19
2023-05-10T08:22:22.605Z,100318.97
2023-05-10T08:24:52.436Z,100383.69
2023-05-10T08:27:22.386Z,100364.81
2023-05-10T08:29:52.264Z,100381.78
2023-05-10T08:32:22.349Z,100327.13
2023-05-10T08:34:52.186Z,100232.31
2023-05-10T08:37:24.584Z,100333.00
2023-05-10T08:39:54.424Z,100373.00
2023-05-10T08:42:26.580Z,100390.75
2023-05-10T08:44:57.865Z,100371.03
2023-05-10T08:47:28.999Z,100394.13
2023-05-10T08:49:59.290Z,100359.13
2023-05-10T08:52:33.748Z,100336.88
2023-05-10T08:55:04.291Z,100389.59
2023-05-10T08:57:34.225Z,100340.91
2023-05-10T09:00:04.988Z,100375.81
2023-05-10T09:02:35.404Z,100397.31
2023-05-10T09:05:05.947Z,100364.84
2023-05-10T09:07:38.963Z,100394.88
2023-05-10T09:10:10.478Z,100371.84
2023-05-10T09:12:40.846Z,100282.06
2023-05-10T09:15:13.102Z,100427.47
2023-05-10T09:17:44.447Z,100385.34
2023-05-10T09:20:14.475Z,100415.09
2023-05-10T09:22:47.108Z,100425.69
2023-05-10T09:25:18.694Z,100398.56
2023-05-10T09:27:50.084Z,100420.72
2023-05-10T09:30:21.734Z,100416.41
2023-05-10T09:32:51.860Z,100352.09
2023-05-10T09:35:25.871Z,100427.31
2023-05-10T09:38:01.573Z,100363.38
2023-05-10T09:40:33.120Z,100416.25
2023-05-10T09:43:07.076Z,100437.00
2023-05-10T09:45:39.316Z,100362.69
2023-05-10T09:48:10.078Z,100431.81
2023-05-10T09:50:40.034Z,100356.72
2023-05-10T09:53:12.590Z,100386.69
2023-05-10T09:55:45.903Z,100344.03
2023-05-10T09:58:16.592Z,100367.06
2023-05-10T10:00:49.055Z,100395.97
2023-05-10T10:03:20.830Z,100433.31
2023-05-10T10:05:52.461Z,100412.91
2023-05-10T10:08:24.962Z,100383.81
2023-05-10T10:10:54.878Z,100399.81
2023-05-10T10:13:24.979Z,100371.38
2023-05-10T10:15:58.239Z,100379.41
2023-05-10T10:18:29.844Z,100397.84
2023-05-10T10:21:00.405Z,100438.63
2023-05-10T10:23:33.100Z,100366.88
2023-05-10T10:26:03.737Z,100379.78
2023-05-10T10:28:44.193Z,100397.69
2023-05-10T10:31:27.700Z,100390.81
2023-05-10T10:34:05.927Z,100428.28
2023-05-10T10:36:38.158Z,100452.09
2023-05-10T10:39:13.659Z,100427.78
2023-05-10T10:41:52.647Z,100440.75
2023-05-10T10:44:39.313Z,100421.97
2023-05-10T10:47:13.017Z,100433.09
2023-05-10T10:49:47.918Z,100360.53
2023-05-10T10:52:19.535Z,100453.34
2023-05-10T10:54:57.316Z,100357.59
2023-05-10T10:57:29.656Z,100435.16
2023-05-10T11:00:23.823Z,100429.44
2023-05-10T11:02:55.640Z,100431.53
2023-05-10T11:05:44.717Z,100438.25
2023-05-10T11:08:24.044Z,100363.34
2023-05-10T11:11:08.323Z,100437.13
2023-05-10T11:13:42.214Z,100434.88
2023-05-10T11:16:20.283Z,100444.13
2023-05-10T11:18:57.636Z,100385.03
2023-05-10T11:21:27.550Z,100372.88
2023-05-10T11:23:59.821Z,100425.28
2023-05-10T11:26:35.527Z,100413.38
2023-05-10T11:29:06.309Z,100449.16
2023-05-10T11:31:36.398Z,100398.84
2023-05-10T11:34:06.348Z,100407.91
2023-05-10T11:36:38.472Z,100385.47
2023-05-10T11:39:09.010Z,100451.28
2023-05-10T11:41:42.990Z,100402.72
2023-05-10T11:44:13.357Z,100421.78
2023-05-10T11:46:43.356Z,100392.19
2023-05-10T11:49:14.546Z,100423.22
2023-05-10T11:51:44.798Z,100436.38
2023-05-10T11:54:15.471Z,100386.31
2023-05-10T11:56:48.291Z,100466.06
2023-05-10T11:59:18.668Z,100455.56
2023-05-10T12:01:48.726Z,100418.84
2023-05-10T12:04:18.850Z,100453.09
2023-05-10T12:06:49.075Z,100455.22
2023-05-10T12:09:22.979Z,100391.03
2023-05-10T12:12:06.100Z,100393.50
2023-05-10T12:14:38.605Z,100388.97
2023-05-10T12:17:08.584Z,100408.28
2023-05-10T12:19:42.208Z,100464.38
2023-05-10T12:22:12.119Z,100462.72
2023-05-10T12:24:42.030Z,100392.88
2023-05-10T12:27:14.560Z,100461.72
2023-05-10T12:29:47.107Z,100426.97
2023-05-10T12:32:17.036Z,100441.22
2023-05-10T12:34:46.990Z,100466.78
2023-05-10T12:37:16.947Z,100477.44
2023-05-10T12:39:48.406Z,100477.63
2023-05-10T12:42:20.962Z,100472.34
2023-05-10T12:44:51.000Z,100464.88
2023-05-10T12:47:20.910Z,100463.53
2023-05-10T12:49:50.788Z,100481.56
2023-05-10T12:52:20.840Z,100443.03
2023-05-10T12:54:50.888Z,100476.84
2023-05-10T12:57:24.398Z,100486.53
2023-05-10T12:59:54.498Z,100433.19
2023-05-10T13:02:25.066Z,100448.31
2023-05-10T13:04:55.199Z,100439.94
2023-05-10T13:07:25.085Z,100482.31
2023-05-10T13:09:54.904Z,100411.50
2023-05-10T13:12:27.453Z,100446.63
2023-05-10T13:14:57.269Z,100496.56
2023-05-10T13:17:29.785Z,100501.94
2023-05-10T13:20:00.229Z,100480.34
2023-05-10T13:22:39.747Z,100497.47
2023-05-10T13:25:11.237Z,100429.09
2023-05-10T13:27:44.383Z,100470.53
2023-05-10T13:30:15.301Z,100476.16
2023-05-10T13:32:45.408Z,100473.16
2023-05-10T13:35:15.346Z,100450.84
2023-05-10T13:37:45.221Z,100488.38
2023-05-10T13:40:16.858Z,100429.06
2023-05-10T13:42:52.462Z,100498.28
2023-05-10T13:45:22.371Z,100514.06
2023-05-10T13:47:53.311Z,100455.16
2023-05-10T13:50:23.633Z,100500.44
2023-05-10T13:52:53.607Z,100516.41
2023-05-10T13:55:23.898Z,100521.00
2023-05-10T13:57:56.484Z,100491.06
2023-05-10T14:00:26.499Z,100521.84
2023-05-10T14:02:56.690Z,100525.63
2023-05-10T14:05:27.331Z,100491.59
2023-05-10T14:07:57.648Z,100472.81
2023-05-10T14:10:27.889Z,100454.91
2023-05-10T14:13:00.378Z,100536.59
2023-05-10T14:15:30.288Z,100522.56
2023-05-10T14:18:00.178Z,100490.44
2023-05-10T14:20:30.282Z,100517.84
2023-05-10T14:23:00.149Z,100521.91
2023-05-10T14:25:29.999Z,100444.00
2023-05-10T14:28:02.674Z,100498.91
2023-05-10T14:30:32.576Z,100482.84
2023-05-10T14:33:02.468Z,100532.59
2023-05-10T14:35:33.115Z,100518.69
2023-05-10T14:38:03.696Z,100462.41
2023-05-10T14:40:33.756Z,100460.31
2023-05-10T14:43:06.701Z,100517.59
2023-05-10T14:45:37.313Z,100504.16
2023-05-10T14:48:07.541Z,100505.19
2023-05-10T14:50:37.705Z,100512.19
2023-05-10T14:53:07.650Z,100456.63
2023-05-10T14:55:38.094Z,100431.66
2023-05-10T14:58:10.550Z,100527.19
2023-05-10T15:00:40.377Z,100531.75
2023-05-10T15:03:10.870Z,100531.88
2023-05-10T15:05:41.693Z,100528.56
2023-05-10T15:08:11.767Z,100526.94
2023-05-10T15:10:41.617Z,100547.53
2023-05-10T15:13:14.051Z,100487.94
2023-05-10T15:15:43.955Z,100527.91
2023-05-10T15:18:13.975Z,100543.31
2023-05-10T15:20:43.794Z,100502.16
2023-05-10T15:23:13.684Z,100552.00
2023-05-10T15:25:43.613Z,100485.28
2023-05-10T15:28:16.124Z,100461.06
2023-05-10T15:30:45.970Z,100535.09
2023-05-10T15:33:15.802Z,100489.94
2023-05-10T15:35:45.729Z,100512.03
2023-05-10T15:38:16.107Z,100498.22
2023-05-10T15:40:45.931Z,100508.41
2023-05-10T15:43:18.623Z,100510.81
2023-05-10T15:45:49.077Z,100581.59
2023-05-10T15:48:19.080Z,100483.13
2023-05-10T15:50:49.078Z,100553.13
2023-05-10T15:53:18.987Z,100559.13
2023-05-10T15:55:49.261Z,100571.88
2023-05-10T15:58:21.848Z,100514.72
2023-05-10T16:00:51.811Z,100583.53
2023-05-10T16:03:21.701Z,100575.69
2023-05-10T16:05:51.645Z,100520.28
2023-05-10T16:08:21.504Z,100585.78
2023-05-10T16:10:54.364Z,100580.53
2023-05-10T16:13:26.929Z,100585.66
2023-05-10T16:15:57.757Z,100577.06
2023-05-10T16:18:27.745Z,100594.03
2023-05-10T16:20:59.462Z,100564.13
2023-05-10T16:23:29.409Z,100593.16
2023-05-10T16:25:59.296Z,100597.47
2023-05-10T16:28:32.563Z,100554.81
2023-05-10T16:31:02.459Z,100539.72
2023-05-10T16:33:32.459Z,100561.22
2023-05-10T16:36:02.354Z,100616.56
2023-05-10T16:38:32.199Z,100601.97
2023-05-10T16:41:05.196Z,100625.06
2023-05-10T16:43:38.027Z,100558.78
2023-05-10T16:46:13.261Z,100567.53
2023-05-10T16:48:43.113Z,100551.59
2023-05-10T16:51:13.356Z,100601.91
2023-05-10T16:53:43.221Z,100576.59
2023-05-10T16:56:13.122Z,100602.00
2023-05-10T16:58:45.785Z,100571.81
2023-05-10T17:01:15.684Z,100632.53
2023-05-10T17:03:46.991Z,100572.19
2023-05-10T17:06:17.019Z,100607.81
2023-05-10T17:08:47.748Z,100654.50
2023-05-10T17:11:20.082Z,100593.06
2023-05-10T17:13:52.871Z,100557.19
2023-05-10T17:16:23.427Z,100569.22
2023-05-10T17:18:53.461Z,100617.22
2023-05-10T17:21:23.382Z,100601.81
2023-05-10T17:23:53.290Z,100601.91
2023-05-10T17:26:23.153Z,100661.88
2023-05-10T17:28:55.914Z,100673.03
2023-05-10T17:31:25.973Z,100658.50
2023-05-10T17:33:55.824Z,100612.41
2023-05-10T17:36:25.654Z,100632.00
2023-05-10T17:38:55.507Z,100593.41
2023-05-10T17:41:25.328Z,100567.00
2023-05-10T17:43:58.084Z,100675.66
2023-05-10T17:46:28.047Z,100670.59
2023-05-10T17:48:58.147Z,100673.28
2023-05-10T17:51:29.089Z,100652.69
2023-05-10T17:53:59.108Z,100602.31
2023-05-10T17:56:29.049Z,100636.56
2023-05-10T17:59:01.492Z,100677.63
2023-05-10T18:01:31.341Z,100621.22
2023-05-10T18:04:01.187Z,100604.19
2023-05-10T18:06:31.128Z,100671.00
2023-05-10T18:09:01.025Z,100626.47
2023-05-10T18:11:30.964Z,100688.88
2023-05-10T18:14:03.426Z,100688.09
2023-05-10T18:16:33.635Z,100693.19
2023-05-10T18:19:03.928Z,100694.00
2023-05-10T18:21:34.419Z,100638.31
2023-05-10T18:24:04.380Z,100622.91
2023-05-10T18:26:34.428Z,100645.13
2023-05-10T18:29:06.939Z,100703.25
2023-05-10T18:31:36.873Z,100655.44
2023-05-10T18:34:07.380Z,100636.81
2023-05-10T18:36:37.254Z,100712.31
2023-05-10T18:39:07.269Z,100549.59
2023-05-10T18:41:37.258Z,100668.47
2023-05-10T18:44:09.822Z,100716.34
2023-05-10T18:46:40.271Z,100729.28
2023-05-10T18:49:10.331Z,100739.63
2023-05-10T18:51:40.334Z,100685.72
2023-05-10T18:54:10.188Z,100698.50
2023-05-10T18:56:44.173Z,100682.25
2023-05-10T18:59:16.940Z,100761.03
2023-05-10T19:01:47.208Z,100756.81
2023-05-10T19:04:18.220Z,100692.69
2023-05-10T19:06:48.306Z,100718.53
2023-05-10T19:09:20.350Z,100710.88
2023-05-10T19:11:50.332Z,100715.19
2023-05-10T19:14:23.205Z,100777.78
2023-05-10T19:16:54.551Z,100772.63
2023-05-10T19:19:24.773Z,100716.06
2023-05-10T19:21:54.874Z,100784.59
2023-05-10T19:24:26.014Z,100779.41
2023-05-10T19:26:56.537Z,100750.31
2023-05-10T19:29:29.471Z,100712.59
2023-05-10T19:32:00.974Z,100747.75
2023-05-10T19:34:31.191Z,100759.72
2023-05-10T19:37:01.278Z,100751.16
2023-05-10T19:39:32.807Z,100776.84
2023-05-10T19:42:02.802Z,100792.25
2023-05-10T19:44:35.556Z,100747.66
2023-05-10T19:47:05.549Z,100707.41
2023-05-10T19:49:36.426Z,100730.56
2023-05-10T19:52:08.027Z,100792.34
2023-05-10T19:54:38.316Z,100753.78
2023-05-10T19:57:08.313Z,100789.81
2023-05-10T19:59:40.869Z,100719.47
2023-05-10T20:02:11.042Z,100747.81
2023-05-10T20:04:40.966Z,100732.38
2023-05-10T20:07:12.607Z,100715.22
2023-05-10T20:09:42.802Z,100757.25
2023-05-10T20:12:12.858Z,100755.56
2023-05-10T20:14:45.342Z,100813.00
2023-05-10T20:17:15.660Z,100737.53
2023-05-10T20:19:45.582Z,100749.53
2023-05-10T20:22:15.523Z,100774.34
2023-05-10T20:24:45.410Z,100764.91
2023-05-10T20:27:15.368Z,100689.50
2023-05-10T20:29:48.060Z,100757.19
2023-05-10T20:32:18.129Z,100787.19
2023-05-10T20:34:48.149Z,100759.78
2023-05-10T20:37:18.082Z,100722.06
2023-05-10T20:39:50.289Z,100794.94
2023-05-10T20:42:20.393Z,100798.34
2023-05-10T20:44:53.304Z,100800.03
2023-05-10T20:47:23.581Z,100744.34
2023-05-10T20:49:53.790Z,100753.75
2023-05-10T20:52:24.587Z,100791.47
2023-05-10T20:54:54.677Z,100731.50
2023-05-10T20:57:25.085Z,100713.50
2023-05-10T20:59:57.818Z,100797.53
2023-05-10T21:02:27.830Z,100756.38
2023-05-10T21:04:58.199Z,100754.66
2023-05-10T21:07:28.245Z,100781.28
2023-05-10T21:09:58.123Z,100800.13
2023-05-10T21:12:28.129Z,100789.00
2023-05-10T21:15:00.721Z,100783.84
2023-05-10T21:17:30.768Z,100800.13
2023-05-10T21:20:00.668Z,100704.94
2023-05-10T21:22:30.626Z,100796.72
2023-05-10T21:25:00.529Z,100752.13
2023-05-10T21:27:30.386Z,100762.38
2023-05-10T21:30:03.246Z,100782.09
2023-05-10T21:32:33.151Z,100776.97
2023-05-10T21:35:03.047Z,100682.63
2023-05-10T21:37:32.940Z,100809.56
2023-05-10T21:40:04.837Z,100794.97
2023-05-10T21:42:34.796Z,100771.81
2023-05-10T21:45:08.040Z,100695.53
2023-05-10T21:47:37.986Z,100796.69
2023-05-10T21:50:10.228Z,100743.56
2023-05-10T21:52:40.227Z,100805.28
2023-05-10T21:55:11.451Z,100786.41
2023-05-10T21:57:41.637Z,100789.84
2023-05-10T22:00:16.572Z,100738.38
2023-05-10T22:02:46.988Z,100794.13
2023-05-10T22:05:16.970Z,100792.41
2023-05-10T22:07:46.958Z,100734.97
2023-05-10T22:10:17.120Z,100772.69
2023-05-10T22:12:47.260Z,100795.84
2023-05-10T22:15:20.092Z,100788.13
2023-05-10T22:17:49.997Z,100779.53
2023-05-10T22:20:21.240Z,100782.16
2023-05-10T22:22:51.446Z,100719.50
2023-05-10T22:25:21.454Z,100794.16
2023-05-10T22:27:51.437Z,100702.34
2023-05-10T22:30:24.236Z,100739.25
2023-05-10T22:32:54.477Z,100787.28
2023-05-10T22:35:25.118Z,100755.56
2023-05-10T22:37:55.223Z,100739.25
2023-05-10T22:40:25.130Z,100750.41
2023-05-10T22:42:55.060Z,100806.16
2023-05-10T22:45:28.310Z,100734.09
2023-05-10T22:47:58.247Z,100778.72
2023-05-10T22:50:29.534Z,100727.22
2023-05-10T22:52:59.411Z,100813.91
2023-05-10T22:55:29.723Z,100740.94
2023-05-10T22:57:59.792Z,100822.47
2023-05-10T23:00:32.314Z,100832.75
2023-05-10T23:03:02.295Z,100807.03
2023-05-10T23:05:32.309Z,100819.03
2023-05-10T23:08:02.252Z,100782.09
2023-05-10T23:10:32.447Z,100831.91
2023-05-10T23:13:02.426Z,100803.59
2023-05-10T23:15:36.440Z,100782.09
2023-05-10T23:18:06.345Z,100839.63
2023-05-10T23:20:36.353Z,100803.59
2023-05-10T23:23:06.294Z,100810.47
2023-05-10T23:25:36.241Z,100835.34
2023-05-10T23:28:06.193Z,100843.06
2023-05-10T23:30:38.784Z,100828.47
2023-05-10T23:33:08.813Z,100766.66
2023-05-10T23:35:38.756Z,100836.19
2023-05-10T23:38:08.715Z,100830.19
2023-05-10T23:40:38.779Z,100812.94
2023-05-10T23:43:08.693Z,100849.84
2023-05-10T23:45:41.437Z,100825.84
2023-05-10T23:48:11.538Z,100756.31
2023-05-10T23:50:41.574Z,100820.69
2023-05-10T23:53:11.560Z,100818.09
2023-05-10T23:55:41.604Z,100743.47
2023-05-10T23:58:11.875Z,100772.66
